Terminal Aerodrome Forecast
Issued by NWS Glasgow, MT

Home | Current Version | Previous Version | Text Only | Print | Product List | Glossary On
Versions: 1 2 3 4 5 6 7 8 9 10 11 12 13 14 15 16 17 18 19 20
000
FTUS45 KGGW 212300 AAA
TAFGGW
TAF AMD
KGGW 212348Z 2200/2224 VRB05KT 6SM -SHRA BKN035 OVC060
      TEMPO 2200/2203 2SM RA BKN018
     FM220300 03009KT P6SM VCSH BKN060
     FM221400 09012KT 6SM -SHRA OVC030=

USA.gov is the U.S. government's official web portal to all federal, state and local government web resources and services.